Gananoque, Canada
Current Conditions -  °F | °C
As of 7:00 PM on Tuesday 25 Nov 2014 (Local Time) from CYGK Reporting Station
Overcast Overcast  
Wind Chill: 29°   Ceiling: 6200
Heat Index: 37°   Visibility: 15mi
Dew Point: 28°   Wind: 14mph
Humidity: 70%   Direction: 250°WSW
Pressure: 30.02"   Gusts: 25mph
Location:  44.33°N, 76.16°W
Report Text: CYGK 260000Z 25012G22KT 15SM SCT040 OVC062 03/M02 A3002 RMK SC3SC5 SLP170
Loading
Personal Weather Stations






























Interactive Weather Map New forecast layout! Learn more

10-Day Weather Forecast

Advertisements
Track Severe Weather on mobile